Time;durP1;ratioP1;P1;durP2;ratioP2;P2;SDS_P1;SDS_P2;PMS_P1;PMS_P2;Temp;Humidity;BMP_temperature;BMP_pressure;BME280_temperature;BME280_humidity;BME280_pressure;Samples;Min_cycle;Max_cycle;Signal;HPM_P1;HPM_P2
2022/06/17 00:00:50;;;;;;;11.50;5.72;;;;;;;;;;7329806;19;153870;-18
2022/06/17 00:03:26;;;;;;;9.13;5.25;;;;;;;;;;7330653;19;161778;-18
2022/06/17 00:05:59;;;;;;;9.05;5.60;;;;;;;;;;7330478;19;162419;-17
2022/06/17 00:08:39;;;;;;;7.47;4.93;;;;;;;;;;7330928;19;153839;-18
2022/06/17 00:11:15;;;;;;;11.32;5.72;;;;;;;;;;7330633;19;153660;-17
2022/06/17 00:13:46;;;;;;;11.35;5.60;;;;;;;;;;7330393;19;161841;-18
2022/06/17 00:16:20;;;;;;;11.75;4.60;;;;;;;;;;7327647;19;163119;-17
2022/06/17 00:18:55;;;;;;;9.43;5.25;;;;;;;;;;7327713;19;154131;-18
2022/06/17 00:21:28;;;;;;;9.27;5.40;;;;;;;;;;7329042;19;153547;-18
2022/06/17 00:24:01;;;;;;;8.32;4.72;;;;;;;;;;7329882;19;162122;-18
2022/06/17 00:26:32;;;;;;;8.27;5.32;;;;;;;;;;7329897;19;162483;-17
2022/06/17 00:29:04;;;;;;;8.60;5.38;;;;;;;;;;7330251;19;154002;-18
2022/06/17 00:31:35;;;;;;;9.20;5.22;;;;;;;;;;7330177;19;153706;-18
2022/06/17 00:34:09;;;;;;;9.55;5.03;;;;;;;;;;7328414;19;162123;-18
2022/06/17 00:36:41;;;;;;;7.35;4.85;;;;;;;;;;7329570;19;162349;-18
2022/06/17 00:39:17;;;;;;;8.25;4.90;;;;;;;;;;7324498;19;154226;-18
2022/06/17 00:41:53;;;;;;;8.85;5.38;;;;;;;;;;7328806;19;153717;-18
2022/06/17 00:44:31;;;;;;;11.35;5.32;;;;;;;;;;7328416;19;161864;-18
2022/06/17 00:47:09;;;;;;;7.72;5.45;;;;;;;;;;7328270;19;162328;-18
2022/06/17 00:49:50;;;;;;;8.15;5.00;;;;;;;;;;7328421;19;154063;-18
2022/06/17 00:52:25;;;;;;;8.55;4.93;;;;;;;;;;7328350;19;153537;-18
2022/06/17 00:54:59;;;;;;;9.00;4.85;;;;;;;;;;7328193;19;161883;-19
2022/06/17 00:57:36;;;;;;;6.07;4.65;;;;;;;;;;7327238;19;162423;-18
2022/06/17 01:00:20;;;;;;;9.02;4.78;;;;;;;;;;7328131;19;154083;-18
2022/06/17 01:02:53;;;;;;;7.90;4.95;;;;;;;;;;7329275;19;153614;-18
2022/06/17 01:05:33;;;;;;;8.35;4.50;;;;;;;;;;7327632;19;161907;-18
2022/06/17 01:08:13;;;;;;;6.40;4.90;;;;;;;;;;7331217;19;162500;-19
2022/06/17 01:10:46;;;;;;;7.25;4.35;;;;;;;;;;7327901;19;154263;-18
2022/06/17 01:13:18;;;;;;;9.98;5.43;;;;;;;;;;7327789;19;153637;-18
2022/06/17 01:15:50;;;;;;;6.50;4.60;;;;;;;;;;7326414;19;161734;-18
2022/06/17 01:18:22;;;;;;;5.95;4.57;;;;;;;;;;7325905;19;162550;-18
2022/06/17 01:21:11;;;;;;;7.15;4.70;;;;;;;;;;7327645;19;154053;-18
2022/06/17 01:23:46;;;;;;;5.97;4.53;;;;;;;;;;7327264;19;153506;-18
2022/06/17 01:26:18;;;;;;;7.13;4.72;;;;;;;;;;7328079;19;162147;-18
2022/06/17 01:28:49;;;;;;;7.23;4.83;;;;;;;;;;7326956;19;162609;-18
2022/06/17 01:31:21;;;;;;;5.63;4.63;;;;;;;;;;7328315;19;153946;-18
2022/06/17 01:33:53;;;;;;;7.60;4.55;;;;;;;;;;7327032;19;153874;-19
2022/06/17 01:36:30;;;;;;;8.25;4.53;;;;;;;;;;7326569;19;161909;-18
2022/06/17 01:39:05;;;;;;;6.45;3.97;;;;;;;;;;7324928;19;162355;-18
2022/06/17 01:41:37;;;;;;;7.40;4.75;;;;;;;;;;7327810;19;154022;-18
2022/06/17 01:44:11;;;;;;;6.88;4.22;;;;;;;;;;7327940;19;153607;-18
2022/06/17 01:46:45;;;;;;;8.55;4.78;;;;;;;;;;7329531;19;162099;-18
2022/06/17 01:49:19;;;;;;;5.90;4.53;;;;;;;;;;7327321;19;162778;-18
2022/06/17 01:51:57;;;;;;;4.72;4.10;;;;;;;;;;7333527;19;154090;-18
2022/06/17 01:54:37;;;;;;;6.63;4.60;;;;;;;;;;7333355;19;153551;-18
2022/06/17 01:57:11;;;;;;;6.55;4.68;;;;;;;;;;7334085;19;161977;-18
2022/06/17 01:59:46;;;;;;;6.45;4.82;;;;;;;;;;7331945;19;162335;-22
2022/06/17 02:02:19;;;;;;;5.40;4.20;;;;;;;;;;7332858;19;154302;-19
2022/06/17 02:04:54;;;;;;;;;;;;;;;;;;7334527;19;154025;-18
2022/06/17 02:07:31;;;;;;;7.13;4.53;;;;;;;;;;7332654;19;162031;-19
2022/06/17 02:10:08;;;;;;;6.60;4.50;;;;;;;;;;7332450;19;162268;-18
2022/06/17 02:12:41;;;;;;;6.85;4.28;;;;;;;;;;7332859;19;154198;-18
2022/06/17 02:15:15;;;;;;;8.25;4.95;;;;;;;;;;7334004;19;153807;-18
2022/06/17 02:18:04;;;;;;;5.43;4.35;;;;;;;;;;7333172;19;162122;-19
2022/06/17 02:20:41;;;;;;;7.03;4.75;;;;;;;;;;7333271;19;162295;-19
2022/06/17 02:23:13;;;;;;;7.70;4.28;;;;;;;;;;7332206;19;154052;-26
2022/06/17 02:25:51;;;;;;;6.50;4.07;;;;;;;;;;7333566;19;153551;-19
2022/06/17 02:28:25;;;;;;;8.45;4.35;;;;;;;;;;7332980;19;161910;-18
2022/06/17 02:30:57;;;;;;;6.43;4.65;;;;;;;;;;7332884;19;162516;-18
2022/06/17 02:33:34;;;;;;;5.28;4.38;;;;;;;;;;7333436;19;154030;-18
2022/06/17 02:36:10;;;;;;;5.97;4.38;;;;;;;;;;7333278;19;153910;-18
2022/06/17 02:38:42;;;;;;;6.35;4.15;;;;;;;;;;7331165;19;161970;-18
2022/06/17 02:41:19;;;;;;;5.82;4.38;;;;;;;;;;7331736;19;162241;-18
2022/06/17 02:43:58;;;;;;;6.20;3.92;;;;;;;;;;7333019;19;154279;-17
2022/06/17 02:46:34;;;;;;;5.97;4.03;;;;;;;;;;7332003;19;153628;-18
2022/06/17 02:49:09;;;;;;;4.63;4.07;;;;;;;;;;7331408;19;162003;-18
2022/06/17 02:51:42;;;;;;;8.32;4.43;;;;;;;;;;7331374;19;162556;-18
2022/06/17 02:54:19;;;;;;;5.90;4.22;;;;;;;;;;7331776;19;154114;-18
2022/06/17 02:56:56;;;;;;;4.90;3.60;;;;;;;;;;7331697;19;153637;-18
2022/06/17 02:59:35;;;;;;;3.67;3.35;;;;;;;;;;7331382;19;161827;-18
2022/06/17 03:02:16;;;;;;;6.95;3.95;;;;;;;;;;7329992;19;162543;-18
2022/06/17 03:04:51;;;;;;;6.05;3.92;;;;;;;;;;7333823;19;154029;-17
2022/06/17 03:07:27;;;;;;;5.50;4.32;;;;;;;;;;7332597;19;153564;-18
2022/06/17 03:10:15;;;;;;;4.95;4.25;;;;;;;;;;7331087;19;161812;-17
2022/06/17 03:12:53;;;;;;;3.90;3.50;;;;;;;;;;7330763;19;162426;-17
2022/06/17 03:15:25;;;;;;;4.35;3.95;;;;;;;;;;7332319;19;153999;-18
2022/06/17 03:17:56;;;;;;;6.00;3.90;;;;;;;;;;7328413;19;153664;-17
2022/06/17 03:20:34;;;;;;;7.00;3.85;;;;;;;;;;7329919;19;161973;-17
2022/06/17 03:23:10;;;;;;;4.65;3.65;;;;;;;;;;7330657;19;162616;-17
2022/06/17 03:25:50;;;;;;;5.63;4.10;;;;;;;;;;7330961;19;154087;-17
2022/06/17 03:28:30;;;;;;;5.57;4.22;;;;;;;;;;7330933;19;153292;-17
2022/06/17 03:31:06;;;;;;;5.78;3.80;;;;;;;;;;7330309;19;162109;-17
2022/06/17 03:33:47;;;;;;;5.82;4.32;;;;;;;;;;7330256;19;162412;-17
2022/06/17 03:36:24;;;;;;;6.47;4.00;;;;;;;;;;7330475;19;154119;-18
2022/06/17 03:39:00;;;;;;;5.15;3.92;;;;;;;;;;7330441;19;153535;-17
2022/06/17 03:41:37;;;;;;;6.07;4.43;;;;;;;;;;7331039;19;161906;-18
2022/06/17 03:44:16;;;;;;;5.88;4.30;;;;;;;;;;7330719;19;162550;-24
2022/06/17 03:46:55;;;;;;;4.47;4.03;;;;;;;;;;7330008;19;154083;-17
2022/06/17 03:49:34;;;;;;;6.43;3.97;;;;;;;;;;7330089;19;153459;-17
2022/06/17 03:52:15;;;;;;;5.47;3.53;;;;;;;;;;7330891;19;162043;-18
2022/06/17 03:54:46;;;;;;;5.35;3.67;;;;;;;;;;7329619;19;162541;-17
2022/06/17 03:57:19;;;;;;;4.20;3.63;;;;;;;;;;7334655;19;154286;-17
2022/06/17 03:59:55;;;;;;;4.85;3.70;;;;;;;;;;7329025;19;153583;-18
2022/06/17 04:02:30;;;;;;;4.88;3.85;;;;;;;;;;7329404;19;161970;-18
2022/06/17 04:05:04;;;;;;;5.03;3.70;;;;;;;;;;7330434;19;162202;-17
2022/06/17 04:07:37;;;;;;;4.20;3.60;;;;;;;;;;7330004;19;154213;-18
2022/06/17 04:10:15;;;;;;;4.20;3.40;;;;;;;;;;7329325;19;153693;-17
2022/06/17 04:12:51;;;;;;;5.30;4.00;;;;;;;;;;7328333;19;161845;-17
2022/06/17 04:15:48;;;;;;;6.40;4.50;;;;;;;;;;7330289;19;162508;-18
2022/06/17 04:18:20;;;;;;;4.13;3.50;;;;;;;;;;7332190;19;154259;-17
2022/06/17 04:20:54;;;;;;;4.45;3.50;;;;;;;;;;7328750;19;153653;-17
2022/06/17 04:23:32;;;;;;;5.28;3.50;;;;;;;;;;7328317;19;161844;-17
2022/06/17 04:26:21;;;;;;;5.03;4.03;;;;;;;;;;7328136;19;162772;-17
2022/06/17 04:28:58;;;;;;;5.05;3.83;;;;;;;;;;7330102;19;154187;-17
2022/06/17 04:31:37;;;;;;;4.32;3.42;;;;;;;;;;7328871;19;153889;-24
2022/06/17 04:34:19;;;;;;;5.20;3.70;;;;;;;;;;7329771;19;161892;-17
2022/06/17 04:36:59;;;;;;;3.58;3.28;;;;;;;;;;7328410;19;162532;-17
2022/06/17 04:39:39;;;;;;;;;;;;;;;;;;7329358;19;154078;-16
2022/06/17 04:42:33;;;;;;;4.95;4.03;;;;;;;;;;7329784;19;153346;-17
2022/06/17 04:45:06;;;;;;;5.50;3.78;;;;;;;;;;7328096;19;161848;-17
2022/06/17 04:47:46;;;;;;;4.72;3.50;;;;;;;;;;7327998;19;162552;-19
2022/06/17 04:50:25;;;;;;;3.65;3.30;;;;;;;;;;7328257;19;154297;-18
2022/06/17 04:52:57;;;;;;;4.53;3.58;;;;;;;;;;7328243;19;153619;-19
2022/06/17 04:55:34;;;;;;;5.15;3.90;;;;;;;;;;7329029;19;161852;-17
2022/06/17 04:58:13;;;;;;;4.35;3.67;;;;;;;;;;7329064;19;162463;-17
2022/06/17 05:00:51;;;;;;;5.03;3.80;;;;;;;;;;7326933;19;154082;-17
2022/06/17 05:03:33;;;;;;;3.67;3.23;;;;;;;;;;7327799;19;153596;-17
2022/06/17 05:06:23;;;;;;;4.15;3.75;;;;;;;;;;7331243;19;161847;-17
2022/06/17 05:09:02;;;;;;;4.28;3.88;;;;;;;;;;7327327;19;162801;-17
2022/06/17 05:11:37;;;;;;;4.68;3.90;;;;;;;;;;7328814;19;154257;-17
2022/06/17 05:14:17;;;;;;;4.25;3.58;;;;;;;;;;7330178;19;153620;-17
2022/06/17 05:16:48;;;;;;;4.38;3.70;;;;;;;;;;7328738;19;161947;-17
2022/06/17 05:19:25;;;;;;;5.65;3.42;;;;;;;;;;7330500;19;162656;-17
2022/06/17 05:21:56;;;;;;;4.00;3.60;;;;;;;;;;7325046;19;154083;-17
2022/06/17 05:24:31;;;;;;;4.75;4.25;;;;;;;;;;7328993;19;153813;-17
2022/06/17 05:27:02;;;;;;;3.67;3.20;;;;;;;;;;7333633;19;162445;-17
2022/06/17 05:29:34;;;;;;;9.00;4.32;;;;;;;;;;7333420;19;162431;-17
2022/06/17 05:32:13;;;;;;;11.00;4.95;;;;;;;;;;7333979;19;154168;-17
2022/06/17 05:34:49;;;;;;;12.23;5.25;;;;;;;;;;7333858;19;153845;-17
2022/06/17 05:37:20;;;;;;;12.77;5.28;;;;;;;;;;7334519;19;161898;-17
2022/06/17 05:39:56;;;;;;;13.90;5.20;;;;;;;;;;7335452;19;162609;-16
2022/06/17 05:42:28;;;;;;;12.85;5.50;;;;;;;;;;7334593;19;154329;-18
2022/06/17 05:45:00;;;;;;;11.00;4.75;;;;;;;;;;7336580;19;153600;-17
2022/06/17 05:48:07;;;;;;;10.55;4.30;;;;;;;;;;7332369;19;161630;-17
2022/06/17 05:51:00;;;;;;;9.93;4.50;;;;;;;;;;7334318;19;163160;-17
2022/06/17 05:53:54;;;;;;;9.82;4.57;;;;;;;;;;7330655;19;154281;-17
2022/06/17 05:56:46;;;;;;;10.32;5.35;;;;;;;;;;7332357;19;153575;-17
2022/06/17 05:59:17;;;;;;;8.80;4.55;;;;;;;;;;7333554;19;161896;-17
2022/06/17 06:01:48;;;;;;;8.60;4.32;;;;;;;;;;7331136;19;162454;-17
2022/06/17 06:04:33;;;;;;;8.60;4.25;;;;;;;;;;7333059;19;154232;-17
2022/06/17 06:07:09;;;;;;;11.27;4.57;;;;;;;;;;7332963;19;153536;-17
2022/06/17 06:09:41;;;;;;;13.43;4.90;;;;;;;;;;7332356;19;161804;-17
2022/06/17 06:12:13;;;;;;;13.03;4.83;;;;;;;;;;7332796;19;162359;-17
2022/06/17 06:14:44;;;;;;;10.32;5.10;;;;;;;;;;7333036;19;153959;-17
2022/06/17 06:17:17;;;;;;;11.15;4.60;;;;;;;;;;7331133;19;153777;-16
2022/06/17 06:19:48;;;;;;;12.05;5.60;;;;;;;;;;7332214;19;161848;-17
2022/06/17 06:22:22;;;;;;;16.83;5.72;;;;;;;;;;7330564;19;162537;-17
2022/06/17 06:24:54;;;;;;;12.05;5.75;;;;;;;;;;7332642;19;154264;-17
2022/06/17 06:27:26;;;;;;;13.07;4.93;;;;;;;;;;7332377;19;153520;-17
2022/06/17 06:30:01;;;;;;;16.58;5.82;;;;;;;;;;7332055;19;162006;-17
2022/06/17 06:32:32;;;;;;;12.07;5.18;;;;;;;;;;7331853;19;163097;-17
2022/06/17 06:35:16;;;;;;;15.10;5.07;;;;;;;;;;7333329;19;154307;-17
2022/06/17 06:37:50;;;;;;;10.52;5.00;;;;;;;;;;7332400;19;153724;-16
2022/06/17 06:40:22;;;;;;;11.75;5.35;;;;;;;;;;7331783;19;161873;-17
2022/06/17 06:42:55;;;;;;;11.98;4.78;;;;;;;;;;7329580;19;162587;-17
2022/06/17 06:45:47;;;;;;;13.38;4.68;;;;;;;;;;7332891;19;154039;-17
2022/06/17 06:48:24;;;;;;;10.82;5.50;;;;;;;;;;7331226;19;153491;-16
2022/06/17 06:50:55;;;;;;;11.48;5.40;;;;;;;;;;7332470;19;161614;-16
2022/06/17 06:53:29;;;;;;;14.40;4.90;;;;;;;;;;7332502;19;162940;-17
2022/06/17 06:56:01;;;;;;;10.48;5.15;;;;;;;;;;7332810;19;154226;-17
2022/06/17 06:58:32;;;;;;;12.50;4.93;;;;;;;;;;7331422;19;153975;-17
2022/06/17 07:01:04;;;;;;;11.95;5.07;;;;;;;;;;7331059;19;162044;-17
2022/06/17 07:03:36;;;;;;;11.60;5.05;;;;;;;;;;7329742;19;162442;-17
2022/06/17 07:06:08;;;;;;;13.27;5.83;;;;;;;;;;7332692;19;153749;-17
2022/06/17 07:08:42;;;;;;;8.90;5.25;;;;;;;;;;7332483;19;153564;-17
2022/06/17 07:11:16;;;;;;;11.88;5.60;;;;;;;;;;7331875;19;161857;-16
2022/06/17 07:13:47;;;;;;;12.27;5.25;;;;;;;;;;7335292;19;162572;-17
2022/06/17 07:16:18;;;;;;;11.60;5.43;;;;;;;;;;7331441;19;154042;-18
2022/06/17 07:18:50;;;;;;;13.30;5.00;;;;;;;;;;7332153;19;153406;-17
2022/06/17 07:21:21;;;;;;;13.35;6.05;;;;;;;;;;7331769;19;162080;-17
2022/06/17 07:23:54;;;;;;;13.18;5.45;;;;;;;;;;7329075;19;162676;-17
2022/06/17 07:26:27;;;;;;;14.57;5.05;;;;;;;;;;7331722;19;154141;-18
2022/06/17 07:28:58;;;;;;;;;;;;;;;;;;7332096;19;153800;-17
2022/06/17 07:31:30;;;;;;;13.80;5.80;;;;;;;;;;7331283;19;162230;-17
2022/06/17 07:34:01;;;;;;;9.68;4.60;;;;;;;;;;7331038;19;162522;-17
2022/06/17 07:42:03;;;;;;;14.38;5.35;;;;;;;;;;7330611;19;161833;-17
2022/06/17 07:44:35;;;;;;;9.43;4.82;;;;;;;;;;7331216;19;162771;-17
2022/06/17 07:47:07;;;;;;;12.17;4.83;;;;;;;;;;7330240;19;154099;-17
2022/06/17 07:49:39;;;;;;;12.25;5.25;;;;;;;;;;7331405;19;153662;-17
2022/06/17 07:52:11;;;;;;;13.20;4.93;;;;;;;;;;7331318;19;161953;-17
2022/06/17 07:54:45;;;;;;;9.10;4.82;;;;;;;;;;7331846;19;162626;-17
2022/06/17 07:57:16;;;;;;;9.23;4.72;;;;;;;;;;7331373;19;154059;-17
2022/06/17 07:59:47;;;;;;;10.93;4.90;;;;;;;;;;7331095;19;153569;-17
2022/06/17 08:02:19;;;;;;;8.82;4.63;;;;;;;;;;7330167;19;161868;-17
2022/06/17 08:04:50;;;;;;;9.20;4.32;;;;;;;;;;7330621;19;162384;-17
2022/06/17 08:07:22;;;;;;;10.30;5.18;;;;;;;;;;7330895;19;154069;-17
2022/06/17 08:09:56;;;;;;;11.40;4.90;;;;;;;;;;7330694;19;153965;-17
2022/06/17 08:12:27;;;;;;;11.32;4.78;;;;;;;;;;7330650;19;161533;-18
2022/06/17 08:14:58;;;;;;;11.48;5.10;;;;;;;;;;7330325;19;162412;-17
2022/06/17 08:17:30;;;;;;;8.25;4.53;;;;;;;;;;7328537;19;154111;-17
2022/06/17 08:20:01;;;;;;;14.48;4.95;;;;;;;;;;7330433;19;153702;-17
2022/06/17 08:22:33;;;;;;;8.10;4.45;;;;;;;;;;7329452;19;161808;-19
2022/06/17 08:25:08;;;;;;;9.38;4.70;;;;;;;;;;7330060;19;162343;-17
2022/06/17 08:27:43;;;;;;;8.98;5.35;;;;;;;;;;7330228;19;154065;-18
2022/06/17 08:30:17;;;;;;;10.35;5.05;;;;;;;;;;7329944;19;153776;-18
2022/06/17 08:32:50;;;;;;;11.80;4.40;;;;;;;;;;7329796;19;162049;-18
2022/06/17 08:35:23;;;;;;;11.52;4.57;;;;;;;;;;7329711;19;162557;-18
2022/06/17 08:37:57;;;;;;;12.95;4.97;;;;;;;;;;7330116;19;154141;-19
2022/06/17 08:40:41;;;;;;;10.40;4.63;;;;;;;;;;7330107;19;153565;-18
2022/06/17 08:43:38;;;;;;;10.45;4.65;;;;;;;;;;7328487;19;162060;-18
2022/06/17 08:46:16;;;;;;;9.40;5.05;;;;;;;;;;7329191;19;162493;-17
2022/06/17 08:49:01;;;;;;;10.48;4.22;;;;;;;;;;7329561;19;153999;-18
2022/06/17 08:51:46;;;;;;;10.63;4.93;;;;;;;;;;7329526;19;153844;-18
2022/06/17 08:54:37;;;;;;;13.60;5.05;;;;;;;;;;7329032;19;162143;-17
2022/06/17 08:57:19;;;;;;;8.45;4.10;;;;;;;;;;7328649;19;162389;-18
2022/06/17 09:00:11;;;;;;;9.17;4.53;;;;;;;;;;7330806;19;154057;-18
2022/06/17 09:03:15;;;;;;;8.98;3.90;;;;;;;;;;7334752;19;153668;-18
2022/06/17 09:05:54;;;;;;;11.05;4.32;;;;;;;;;;7335441;19;161789;-18
2022/06/17 09:08:43;;;;;;;8.32;4.47;;;;;;;;;;7335525;19;162551;-17
2022/06/17 09:11:21;;;;;;;10.40;4.63;;;;;;;;;;7334787;19;154019;-18
2022/06/17 09:14:08;;;;;;;10.43;5.10;;;;;;;;;;7335762;19;153523;-18
2022/06/17 09:16:48;;;;;;;13.00;4.57;;;;;;;;;;7333234;19;161889;-18
2022/06/17 09:19:25;;;;;;;11.50;4.93;;;;;;;;;;7335215;19;162534;-18
2022/06/17 09:21:59;;;;;;;10.00;4.72;;;;;;;;;;7340058;19;153860;-15
2022/06/17 09:24:34;;;;;;;11.63;4.78;;;;;;;;;;7333800;19;153542;-16
2022/06/17 09:27:08;;;;;;;10.38;4.32;;;;;;;;;;7335049;19;161828;-18
2022/06/17 09:29:48;;;;;;;8.88;4.40;;;;;;;;;;7334933;19;162577;-17
2022/06/17 09:32:25;;;;;;;11.05;5.00;;;;;;;;;;7335303;19;154091;-17
2022/06/17 09:35:04;;;;;;;12.20;4.97;;;;;;;;;;7335297;19;153743;-18
2022/06/17 09:37:41;;;;;;;10.55;5.72;;;;;;;;;;7334755;19;161854;-17
2022/06/17 09:40:18;;;;;;;9.23;4.72;;;;;;;;;;7334989;19;162095;-18
2022/06/17 09:42:56;;;;;;;10.07;5.00;;;;;;;;;;7334005;19;154101;-17
2022/06/17 09:45:33;;;;;;;11.13;4.78;;;;;;;;;;7332716;19;153605;-17
2022/06/17 09:48:08;;;;;;;7.85;4.28;;;;;;;;;;7334517;19;162034;-18
2022/06/17 09:50:46;;;;;;;11.98;4.75;;;;;;;;;;7334864;19;162627;-17
2022/06/17 09:53:24;;;;;;;10.77;5.03;;;;;;;;;;7334885;19;154374;-17
2022/06/17 09:56:00;;;;;;;8.45;4.45;;;;;;;;;;7334672;19;153722;-17
2022/06/17 09:58:38;;;;;;;11.82;4.75;;;;;;;;;;7333067;19;161853;-17
2022/06/17 10:01:13;;;;;;;11.15;4.80;;;;;;;;;;7334180;19;162629;-18
2022/06/17 10:03:44;;;;;;;9.98;4.47;;;;;;;;;;7333917;19;153993;-17
2022/06/17 10:06:29;;;;;;;12.57;5.28;;;;;;;;;;7334555;19;153535;-15
2022/06/17 10:09:14;;;;;;;12.98;4.45;;;;;;;;;;7334059;19;161846;-17
2022/06/17 10:11:52;;;;;;;8.68;4.65;;;;;;;;;;7333005;19;162479;-18
2022/06/17 10:14:48;;;;;;;11.73;5.07;;;;;;;;;;7334324;19;154245;-17
2022/06/17 10:20:27;;;;;;;11.10;4.88;;;;;;;;;;7333553;19;161801;-17
2022/06/17 10:23:16;;;;;;;10.70;5.18;;;;;;;;;;7333230;19;162421;-18
2022/06/17 10:25:59;;;;;;;10.02;4.72;;;;;;;;;;7330428;19;154144;-18
2022/06/17 10:28:47;;;;;;;12.20;5.18;;;;;;;;;;7333789;19;153786;-17
2022/06/17 10:31:28;;;;;;;9.80;4.50;;;;;;;;;;7332370;19;162142;-17
2022/06/17 10:34:06;;;;;;;8.85;4.68;;;;;;;;;;7333246;19;162510;-18
2022/06/17 10:36:41;;;;;;;10.43;4.93;;;;;;;;;;7333442;19;154155;-18
2022/06/17 10:39:16;;;;;;;11.93;4.87;;;;;;;;;;7333271;19;153419;-17
2022/06/17 10:41:48;;;;;;;9.90;5.10;;;;;;;;;;7331801;19;161612;-17
2022/06/17 10:44:23;;;;;;;11.83;4.63;;;;;;;;;;7332112;19;162301;-17
2022/06/17 10:47:01;;;;;;;10.10;4.53;;;;;;;;;;7333068;19;154070;-18
2022/06/17 10:49:40;;;;;;;10.50;4.80;;;;;;;;;;7333185;19;153474;-18
2022/06/17 10:52:18;;;;;;;10.90;4.72;;;;;;;;;;7332813;19;161990;-18
2022/06/17 10:54:50;;;;;;;9.88;4.28;;;;;;;;;;7332479;19;162389;-17
2022/06/17 10:57:27;;;;;;;10.10;4.78;;;;;;;;;;7332733;19;154344;-17
2022/06/17 10:59:58;;;;;;;11.73;4.82;;;;;;;;;;7332512;19;153837;-18
2022/06/17 11:02:32;;;;;;;6.45;4.25;;;;;;;;;;7332266;19;161700;-18
2022/06/17 11:05:08;;;;;;;11.10;4.78;;;;;;;;;;7331158;19;162628;-18
2022/06/17 11:07:50;;;;;;;10.45;4.40;;;;;;;;;;7332750;19;154162;-18
2022/06/17 11:10:24;;;;;;;;;;;;;;;;;;7333284;19;153751;-18
2022/06/17 11:12:59;;;;;;;13.57;5.55;;;;;;;;;;7332254;19;162328;-18
2022/06/17 11:15:33;;;;;;;13.57;4.95;;;;;;;;;;7332082;19;162449;-18
2022/06/17 11:18:10;;;;;;;16.30;5.40;;;;;;;;;;7328541;19;154195;-16
2022/06/17 11:20:56;;;;;;;16.27;5.78;;;;;;;;;;7332302;19;153800;-18
2022/06/17 11:23:31;;;;;;;13.13;5.22;;;;;;;;;;7329415;19;162183;-18
2022/06/17 11:26:16;;;;;;;9.18;4.47;;;;;;;;;;7334049;19;162511;-17
2022/06/17 11:28:50;;;;;;;13.88;6.00;;;;;;;;;;7331936;19;155066;-18
2022/06/17 11:31:35;;;;;;;13.00;5.22;;;;;;;;;;7330771;19;153639;-18
2022/06/17 11:34:15;;;;;;;11.35;5.95;;;;;;;;;;7331548;19;161738;-17
2022/06/17 11:37:00;;;;;;;13.82;5.60;;;;;;;;;;7330282;19;162437;-18
2022/06/17 11:39:35;;;;;;;11.68;5.82;;;;;;;;;;7330874;19;154286;-18
2022/06/17 11:42:16;;;;;;;12.20;5.82;;;;;;;;;;7331820;19;153850;-18
2022/06/17 11:44:58;;;;;;;9.63;5.65;;;;;;;;;;7332319;19;162326;-17
2022/06/17 11:47:32;;;;;;;9.68;5.40;;;;;;;;;;7331263;19;162883;-17
2022/06/17 11:50:18;;;;;;;15.65;5.88;;;;;;;;;;7331722;19;153988;-18
2022/06/17 11:52:54;;;;;;;12.73;6.47;;;;;;;;;;7331461;19;153491;-18
2022/06/17 11:55:30;;;;;;;15.02;5.75;;;;;;;;;;7331116;19;161764;-18
2022/06/17 11:58:22;;;;;;;13.48;5.53;;;;;;;;;;7331058;19;162115;-18
2022/06/17 12:00:58;;;;;;;13.38;5.85;;;;;;;;;;7331499;19;154025;-17
2022/06/17 12:03:44;;;;;;;13.82;5.63;;;;;;;;;;7333358;19;153726;-17
2022/06/17 12:06:24;;;;;;;16.70;5.55;;;;;;;;;;7328686;19;161701;-18
2022/06/17 12:09:06;;;;;;;18.80;6.45;;;;;;;;;;7330525;19;162675;-18
2022/06/17 12:11:48;;;;;;;15.10;6.03;;;;;;;;;;7330810;19;154334;-18
2022/06/17 12:14:28;;;;;;;16.97;6.17;;;;;;;;;;7330574;19;153752;-18
2022/06/17 12:17:00;;;;;;;11.95;6.15;;;;;;;;;;7332178;19;161871;-18
2022/06/17 12:19:51;;;;;;;11.43;5.35;;;;;;;;;;7329270;19;162467;-18
2022/06/17 12:22:33;;;;;;;16.05;5.93;;;;;;;;;;7331791;19;132918;-18
2022/06/17 12:25:14;;;;;;;12.15;5.32;;;;;;;;;;7329938;19;153710;-18
2022/06/17 12:28:08;;;;;;;14.75;5.35;;;;;;;;;;7329968;19;161883;-18
2022/06/17 12:30:48;;;;;;;15.98;6.22;;;;;;;;;;7326480;19;162242;-18
2022/06/17 12:33:26;;;;;;;10.90;4.68;;;;;;;;;;7326525;19;154084;-18
2022/06/17 12:36:03;;;;;;;9.55;5.40;;;;;;;;;;7328210;19;153753;-18
2022/06/17 12:38:41;;;;;;;8.23;5.18;;;;;;;;;;7329295;19;162080;-18
2022/06/17 12:41:21;;;;;;;10.68;5.20;;;;;;;;;;7326404;19;162558;-18
2022/06/17 12:44:07;;;;;;;12.55;5.53;;;;;;;;;;7327447;19;153923;-18
2022/06/17 12:46:46;;;;;;;11.82;5.10;;;;;;;;;;7329014;19;153456;-18
2022/06/17 12:55:10;;;;;;;9.32;4.85;;;;;;;;;;7328417;19;154024;-18
2022/06/17 12:57:53;;;;;;;10.80;5.18;;;;;;;;;;7329320;19;154368;-18
2022/06/17 13:00:30;;;;;;;8.77;4.50;;;;;;;;;;7329051;19;161996;-18
2022/06/17 13:03:25;;;;;;;14.85;5.25;;;;;;;;;;7329050;19;162398;-17
2022/06/17 13:06:01;;;;;;;10.52;4.97;;;;;;;;;;7330153;19;154177;-18
2022/06/17 13:08:40;;;;;;;8.50;4.57;;;;;;;;;;7332020;19;153832;-18
2022/06/17 13:11:19;;;;;;;7.68;4.45;;;;;;;;;;7328660;19;162158;-18
2022/06/17 13:14:06;;;;;;;7.85;4.40;;;;;;;;;;7328443;19;163106;-18
2022/06/17 13:16:41;;;;;;;11.65;5.57;;;;;;;;;;7332346;19;154197;-18
2022/06/17 13:19:19;;;;;;;10.52;5.00;;;;;;;;;;7328949;19;153663;-18
2022/06/17 13:21:59;;;;;;;8.32;4.85;;;;;;;;;;7327138;19;161880;-17
2022/06/17 13:24:38;;;;;;;6.30;4.53;;;;;;;;;;7331060;19;163662;-18
2022/06/17 13:27:16;;;;;;;8.13;4.13;;;;;;;;;;7330396;19;154175;-17
2022/06/17 13:29:58;;;;;;;10.27;4.43;;;;;;;;;;7329097;19;153363;-18
2022/06/17 13:32:33;;;;;;;12.98;5.38;;;;;;;;;;7330129;19;162347;-17
2022/06/17 13:35:09;;;;;;;10.02;4.90;;;;;;;;;;7328944;19;162413;-17
2022/06/17 13:37:47;;;;;;;11.63;4.72;;;;;;;;;;7331361;19;153977;-17
2022/06/17 13:40:22;;;;;;;9.13;4.45;;;;;;;;;;7332240;19;153739;-17
2022/06/17 13:42:57;;;;;;;13.63;4.95;;;;;;;;;;7328994;19;161832;-16
2022/06/17 13:45:44;;;;;;;12.98;5.53;;;;;;;;;;7332874;19;162560;-17
2022/06/17 13:48:20;;;;;;;8.38;4.65;;;;;;;;;;7337262;19;154068;-16
2022/06/17 13:51:03;;;;;;;9.60;4.55;;;;;;;;;;7335032;19;153621;-17
2022/06/17 13:53:53;;;;;;;11.15;4.82;;;;;;;;;;7334382;19;161774;-17
2022/06/17 13:56:34;;;;;;;8.80;4.80;;;;;;;;;;7334242;19;162494;-16
2022/06/17 13:59:09;;;;;;;8.70;4.63;;;;;;;;;;7334617;19;154009;-17
2022/06/17 14:01:46;;;;;;;11.55;5.20;;;;;;;;;;7336183;19;153519;-17
2022/06/17 14:04:23;;;;;;;9.02;4.97;;;;;;;;;;7337452;19;161904;-17
2022/06/17 14:07:12;;;;;;;7.20;4.68;;;;;;;;;;7333254;19;162524;-17
2022/06/17 14:09:44;;;;;;;8.82;5.03;;;;;;;;;;7334461;19;154174;-17
2022/06/17 14:12:44;;;;;;;9.18;4.47;;;;;;;;;;7334556;19;153510;-17
2022/06/17 14:15:20;;;;;;;9.48;4.57;;;;;;;;;;7333647;19;161847;-17
2022/06/17 14:17:57;;;;;;;7.22;4.53;;;;;;;;;;7334485;19;162272;-17
2022/06/17 14:20:34;;;;;;;11.02;4.50;;;;;;;;;;7337346;19;154018;-17
2022/06/17 14:23:16;;;;;;;10.20;5.05;;;;;;;;;;7334113;19;153571;-17
2022/06/17 14:25:50;;;;;;;5.97;4.10;;;;;;;;;;7333266;19;161885;-19
2022/06/17 14:28:37;;;;;;;10.30;4.68;;;;;;;;;;7335314;19;162758;-17
2022/06/17 14:31:18;;;;;;;9.98;4.63;;;;;;;;;;7336297;19;154257;-20
2022/06/17 14:34:11;;;;;;;8.77;4.63;;;;;;;;;;7337787;19;153633;-17
2022/06/17 14:36:58;;;;;;;11.30;4.88;;;;;;;;;;7332555;19;161950;-17
2022/06/17 14:39:51;;;;;;;8.68;4.68;;;;;;;;;;7329732;19;162498;-17
2022/06/17 14:42:36;;;;;;;;;;;;;;;;;;7331486;19;154091;-17
2022/06/17 14:45:38;;;;;;;12.55;5.38;;;;;;;;;;7330353;19;153295;-17
2022/06/17 14:48:22;;;;;;;9.13;4.68;;;;;;;;;;7329848;19;162018;-18
2022/06/17 14:51:01;;;;;;;14.23;6.00;;;;;;;;;;7331412;19;162808;-17
2022/06/17 14:53:42;;;;;;;14.85;5.30;;;;;;;;;;7332655;19;154365;-17
2022/06/17 14:56:46;;;;;;;12.30;5.72;;;;;;;;;;7331885;19;153808;-17
2022/06/17 14:59:27;;;;;;;11.65;5.60;;;;;;;;;;7329378;19;161969;-16
2022/06/17 15:02:02;;;;;;;9.70;5.78;;;;;;;;;;7331801;19;162561;-17
2022/06/17 15:04:40;;;;;;;13.45;4.90;;;;;;;;;;7333064;19;154345;-17
2022/06/17 15:07:24;;;;;;;11.27;5.38;;;;;;;;;;7332004;19;153649;-17
2022/06/17 15:09:59;;;;;;;9.40;5.38;;;;;;;;;;7332147;19;161893;-17
2022/06/17 15:12:33;;;;;;;12.68;5.22;;;;;;;;;;7332308;19;162457;-17
2022/06/17 15:15:09;;;;;;;11.90;4.90;;;;;;;;;;7332818;19;154239;-17
2022/06/17 15:17:45;;;;;;;14.43;5.90;;;;;;;;;;7330298;19;153600;-17
2022/06/17 15:20:20;;;;;;;10.63;5.10;;;;;;;;;;7331974;19;161844;-17
2022/06/17 15:23:05;;;;;;;8.73;5.20;;;;;;;;;;7336376;19;162437;-17
2022/06/17 15:25:55;;;;;;;14.85;4.93;;;;;;;;;;7332471;19;154005;-17
2022/06/17 15:28:32;;;;;;;15.20;6.20;;;;;;;;;;7330624;19;154098;-17
2022/06/17 15:31:19;;;;;;;11.02;5.03;;;;;;;;;;7331914;19;161833;-17
2022/06/17 15:33:53;;;;;;;8.73;5.47;;;;;;;;;;7331668;19;162597;-17
2022/06/17 15:36:28;;;;;;;13.43;5.57;;;;;;;;;;7335705;19;154151;-17
2022/06/17 15:39:10;;;;;;;10.18;5.05;;;;;;;;;;7331958;19;153526;-16
2022/06/17 15:41:52;;;;;;;13.88;6.22;;;;;;;;;;7331674;19;162000;-18